Time;durP1;ratioP1;P1;durP2;ratioP2;P2;SDS_P1;SDS_P2;PMS_P1;PMS_P2;Temp;Humidity;BMP_temperature;BMP_pressure;BME280_temperature;BME280_humidity;BME280_pressure;Samples;Min_cycle;Max_cycle;Signal;HPM_P1;HPM_P2
2022/06/29 00:01:01;;;;;;;3.80;2.60;;;16.90;99.90;;;;;;4139081;28;20068;-95
2022/06/29 00:03:02;;;;;;;5.00;2.53;;;16.70;99.90;;;;;;4151524;28;20132;-96
2022/06/29 00:05:06;;;;;;;3.70;2.42;;;16.70;99.90;;;;;;4155853;28;20137;-96
2022/06/29 00:07:08;;;;;;;6.60;3.05;;;16.70;99.90;;;;;;4151732;28;20050;-95
2022/06/29 00:09:09;;;;;;;5.97;2.42;;;16.70;99.90;;;;;;4152358;28;20100;-95
2022/06/29 00:11:10;;;;;;;4.78;2.70;;;16.70;99.90;;;;;;4167927;28;20041;-95
2022/06/29 00:13:11;;;;;;;4.55;2.60;;;16.70;99.90;;;;;;4153310;28;20056;-95
2022/06/29 00:15:16;;;;;;;4.95;2.90;;;16.60;99.90;;;;;;4151600;28;20049;-95
2022/06/29 00:17:18;;;;;;;6.75;3.90;;;16.60;99.90;;;;;;4151777;28;20050;-96
2022/06/29 00:19:20;;;;;;;5.88;2.95;;;16.60;99.90;;;;;;4153460;28;20049;-96
2022/06/29 00:21:20;;;;;;;7.90;3.60;;;16.60;99.90;;;;;;4151968;28;20046;-96
2022/06/29 00:23:21;;;;;;;8.02;3.10;;;16.60;99.90;;;;;;4167612;28;20043;-95
2022/06/29 00:25:22;;;;;;;6.60;2.55;;;16.70;99.90;;;;;;4152052;28;20050;-95
2022/06/29 00:27:24;;;;;;;5.38;2.75;;;16.40;99.90;;;;;;4169201;28;20045;-95
2022/06/29 00:29:25;;;;;;;3.60;2.90;;;16.60;99.90;;;;;;4166375;28;20099;-94
2022/06/29 00:31:27;;;;;;;4.43;2.80;;;16.60;99.90;;;;;;4170435;28;20077;-95
2022/06/29 00:33:29;;;;;;;7.25;3.10;;;16.60;99.90;;;;;;4169565;28;20056;-96
2022/06/29 00:35:30;;;;;;;6.22;2.33;;;16.60;99.90;;;;;;4168031;28;20108;-96
2022/06/29 00:37:31;;;;;;;5.50;2.70;;;16.50;99.90;;;;;;4160176;28;20049;-96
2022/06/29 00:39:33;;;;;;;6.00;2.58;;;16.50;99.90;;;;;;4152981;28;20084;-94
2022/06/29 00:41:45;;;;;;;6.30;3.38;;;16.40;99.90;;;;;;4152143;28;20037;-95
2022/06/29 00:43:45;;;;;;;8.68;2.72;;;16.40;99.90;;;;;;4153082;28;20469;-96
2022/06/29 00:45:48;;;;;;;4.35;2.72;;;16.40;99.90;;;;;;4152624;28;20105;-94
2022/06/29 00:47:51;;;;;;;6.55;2.97;;;16.40;99.90;;;;;;4168817;28;20620;-94
2022/06/29 00:49:53;;;;;;;11.93;3.53;;;16.40;99.90;;;;;;4154320;28;20050;-95
2022/06/29 00:52:02;;;;;;;5.47;2.60;;;16.30;99.90;;;;;;4154203;28;20494;-94
2022/06/29 00:54:05;;;;;;;6.03;2.97;;;16.40;99.90;;;;;;4156757;28;20058;-94
2022/06/29 00:56:09;;;;;;;5.45;2.85;;;16.30;99.90;;;;;;4158783;28;20053;-95
2022/06/29 00:58:11;;;;;;;8.07;3.00;;;16.30;99.90;;;;;;4165418;28;20038;-94
2022/06/29 01:00:12;;;;;;;8.25;3.22;;;16.30;99.90;;;;;;4170849;28;20100;-94
2022/06/29 01:02:19;;;;;;;3.95;3.13;;;16.20;99.90;;;;;;4175488;28;20052;-95
2022/06/29 01:04:20;;;;;;;11.18;3.30;;;16.20;99.90;;;;;;4154688;28;20124;-95
2022/06/29 01:06:23;;;;;;;6.68;2.88;;;16.20;99.90;;;;;;4170869;28;20052;-95
2022/06/29 01:08:24;;;;;;;5.97;2.90;;;16.20;99.90;;;;;;4155570;28;20081;-95
2022/06/29 01:10:26;;;;;;;4.43;3.25;;;16.20;99.90;;;;;;4155887;28;20132;-95
2022/06/29 01:12:29;;;;;;;7.65;3.25;;;16.20;99.90;;;;;;4155157;28;20136;-95
2022/06/29 01:14:29;;;;;;;7.07;3.08;;;16.20;99.90;;;;;;4156166;28;20045;-96
2022/06/29 01:16:30;;;;;;;8.98;3.03;;;16.20;99.90;;;;;;4155192;28;20061;-95
2022/06/29 01:18:32;;;;;;;6.85;3.17;;;16.20;99.90;;;;;;4156743;28;20054;-96
2022/06/29 01:20:35;;;;;;;3.70;2.80;;;16.20;99.90;;;;;;4155696;28;20042;-95
2022/06/29 01:22:37;;;;;;;4.32;2.90;;;16.20;99.90;;;;;;4154599;28;20042;-96
2022/06/29 01:24:39;;;;;;;6.15;3.47;;;16.20;99.90;;;;;;4155113;28;20118;-95
2022/06/29 01:26:44;;;;;;;5.10;2.85;;;16.10;99.90;;;;;;4171077;28;20544;-95
2022/06/29 01:28:46;;;;;;;7.00;2.78;;;15.90;99.90;;;;;;4163448;28;20072;-96
2022/06/29 01:30:47;;;;;;;7.22;3.35;;;16.10;99.90;;;;;;4174081;28;20042;-96
2022/06/29 01:32:54;;;;;;;5.63;3.13;;;16.10;99.90;;;;;;4173062;28;20572;-96
2022/06/29 01:34:55;;;;;;;5.80;3.30;;;16.10;99.90;;;;;;4156386;28;20073;-96
2022/06/29 01:36:58;;;;;;;5.43;3.50;;;16.10;99.90;;;;;;4154576;28;20142;-96
2022/06/29 01:38:59;;;;;;;5.15;3.60;;;16.10;99.90;;;;;;4154429;28;20042;-96
2022/06/29 01:41:00;;;;;;;4.18;3.10;;;16.10;99.90;;;;;;4153135;28;20115;-96
2022/06/29 01:43:00;;;;;;;3.58;2.97;;;16.10;99.90;;;;;;4154451;28;20498;-96
2022/06/29 01:45:04;;;;;;;5.35;3.40;;;16.00;99.90;;;;;;4155253;28;20053;-95
2022/06/29 01:47:05;;;;;;;5.30;2.80;;;16.10;99.90;;;;;;4155520;28;20135;-96
2022/06/29 01:49:09;;;;;;;6.45;3.60;;;16.10;99.90;;;;;;4156509;28;20492;-96
2022/06/29 01:51:10;;;;;;;4.20;3.40;;;16.00;99.90;;;;;;4156701;28;20108;-96
2022/06/29 01:53:12;;;;;;;6.53;3.22;;;16.00;99.90;;;;;;4169603;28;20045;-95
2022/06/29 01:55:14;;;;;;;4.43;3.22;;;16.00;99.90;;;;;;4151608;28;20095;-95
2022/06/29 01:57:14;;;;;;;4.93;3.28;;;16.00;99.90;;;;;;4153203;28;20104;-95
2022/06/29 01:59:15;;;;;;;6.95;3.33;;;16.00;99.90;;;;;;4152764;28;20121;-95
2022/06/29 02:01:18;;;;;;;6.35;4.00;;;15.90;99.90;;;;;;4153555;28;20053;-95
2022/06/29 02:03:21;;;;;;;5.43;4.13;;;15.90;99.90;;;;;;4153623;28;20104;-95
2022/06/29 02:05:23;;;;;;;6.80;3.28;;;15.90;99.90;;;;;;4152322;28;20042;-94
2022/06/29 02:07:24;;;;;;;5.43;3.75;;;15.90;99.90;;;;;;4152299;28;20156;-95
2022/06/29 02:09:25;;;;;;;6.13;3.35;;;15.90;99.90;;;;;;4152265;28;20048;-94
2022/06/29 02:11:26;;;;;;;6.43;3.25;;;15.90;99.90;;;;;;4161183;28;20046;-95
2022/06/29 02:13:28;;;;;;;6.43;3.53;;;15.90;99.90;;;;;;4160931;28;20137;-94
2022/06/29 02:15:29;;;;;;;5.30;3.35;;;15.90;99.90;;;;;;4153452;28;20461;-96
2022/06/29 02:17:30;;;;;;;9.70;3.33;;;15.90;99.90;;;;;;4150968;28;20111;-96
2022/06/29 02:19:32;;;;;;;11.30;3.92;;;16.00;99.90;;;;;;4150634;28;20050;-96
2022/06/29 02:21:36;;;;;;;6.20;3.55;;;16.00;99.90;;;;;;4151104;28;20053;-96
2022/06/29 02:23:37;;;;;;;9.13;3.95;;;16.00;99.90;;;;;;4151476;28;20565;-96
2022/06/29 02:25:42;;;;;;;6.43;3.83;;;16.00;99.90;;;;;;4147346;28;20049;-96
2022/06/29 02:27:46;;;;;;;8.73;4.90;;;15.90;99.90;;;;;;4161040;28;20448;-96
2022/06/29 02:29:47;;;;;;;6.47;3.65;;;16.00;99.90;;;;;;4168551;28;20053;-96
2022/06/29 02:36:30;;;;;;;5.50;3.75;;;16.00;99.90;;;;;;4152443;28;20049;-96
2022/06/29 02:38:34;;;;;;;7.75;4.80;;;16.00;99.90;;;;;;4136688;28;20077;-96
2022/06/29 02:40:35;;;;;;;6.80;4.13;;;16.00;99.90;;;;;;4136498;28;20042;-95
2022/06/29 02:42:38;;;;;;;7.13;3.35;;;16.00;99.90;;;;;;4168228;28;20045;-95
2022/06/29 02:44:41;;;;;;;5.63;4.22;;;16.00;99.90;;;;;;4163172;28;20124;-96
2022/06/29 02:46:41;;;;;;;6.88;5.15;;;16.00;99.90;;;;;;4152492;28;20046;-96
2022/06/29 02:48:42;;;;;;;7.53;4.03;;;16.00;99.90;;;;;;4152586;28;20100;-96
2022/06/29 02:50:43;;;;;;;9.32;3.97;;;16.00;99.90;;;;;;4152112;28;20105;-96
2022/06/29 02:52:52;;;;;;;9.43;4.03;;;15.90;99.90;;;;;;4151488;28;20049;-96
2022/06/29 02:54:54;;;;;;;6.65;4.25;;;15.90;99.90;;;;;;4152612;28;20042;-96
2022/06/29 02:56:54;;;;;;;9.82;4.15;;;16.00;99.90;;;;;;4153826;28;20042;-96
2022/06/29 02:58:55;;;;;;;6.25;4.28;;;15.90;99.90;;;;;;4152599;28;20138;-96
2022/06/29 03:00:57;;;;;;;8.23;4.30;;;15.90;99.90;;;;;;4151498;28;20067;-96
2022/06/29 03:03:00;;;;;;;5.78;4.18;;;15.90;99.90;;;;;;4151481;28;20522;-96
2022/06/29 03:05:02;;;;;;;6.22;4.78;;;15.70;99.90;;;;;;4152079;28;20046;-96
2022/06/29 03:07:03;;;;;;;10.23;4.88;;;15.90;99.90;;;;;;4152479;28;20049;-96
2022/06/29 03:09:05;;;;;;;7.95;4.15;;;15.90;99.90;;;;;;4152007;28;20053;-95
2022/06/29 03:11:05;;;;;;;9.38;4.50;;;15.90;99.90;;;;;;4152181;28;20516;-96
2022/06/29 03:13:07;;;;;;;7.07;4.20;;;15.90;99.90;;;;;;4168392;28;20053;-96
2022/06/29 03:15:08;;;;;;;5.32;3.67;;;15.90;99.90;;;;;;4169687;28;20050;-96
2022/06/29 03:17:10;;;;;;;8.57;4.70;;;15.80;99.90;;;;;;4151326;28;20045;-96
2022/06/29 03:19:10;;;;;;;8.65;4.40;;;15.80;99.90;;;;;;4152985;28;20053;-96
2022/06/29 03:21:11;;;;;;;8.27;5.00;;;15.60;99.90;;;;;;4152004;28;20108;-96
2022/06/29 03:23:12;;;;;;;6.00;4.50;;;15.70;99.90;;;;;;4155636;28;20052;-96
2022/06/29 03:25:14;;;;;;;11.00;4.82;;;15.80;99.90;;;;;;4157596;28;20037;-95
2022/06/29 03:27:15;;;;;;;9.00;4.43;;;15.80;99.90;;;;;;4163454;28;20077;-96
2022/06/29 03:29:16;;;;;;;5.22;4.15;;;15.80;99.90;;;;;;4161225;28;20061;-96
2022/06/29 03:31:20;;;;;;;7.38;4.25;;;15.80;99.90;;;;;;4154836;28;20510;-96
2022/06/29 03:33:21;;;;;;;6.10;4.10;;;15.80;99.90;;;;;;4156487;28;20049;-96
2022/06/29 03:35:26;;;;;;;9.00;4.50;;;15.80;99.90;;;;;;4156138;28;20046;-96
2022/06/29 03:37:27;;;;;;;10.45;5.05;;;15.70;99.90;;;;;;4166017;28;20036;-95
2022/06/29 03:39:28;;;;;;;7.63;4.22;;;15.80;99.90;;;;;;4184645;28;20041;-96
2022/06/29 03:41:30;;;;;;;5.97;4.63;;;15.80;99.90;;;;;;4169070;28;20081;-96
2022/06/29 03:43:32;;;;;;;7.63;4.78;;;15.80;99.90;;;;;;4169107;28;20046;-96
2022/06/29 03:45:33;;;;;;;5.15;4.60;;;15.80;99.90;;;;;;4167867;28;20042;-96
2022/06/29 03:47:34;;;;;;;7.22;4.53;;;15.80;99.90;;;;;;4168524;28;20056;-95
2022/06/29 03:49:35;;;;;;;9.88;4.50;;;15.80;99.90;;;;;;4167278;28;20100;-95
2022/06/29 03:51:39;;;;;;;10.65;4.05;;;15.70;99.90;;;;;;4165350;28;20038;-95
2022/06/29 03:53:41;;;;;;;8.75;4.80;;;15.70;99.90;;;;;;4162921;28;20046;-95
2022/06/29 03:55:42;;;;;;;11.20;4.95;;;15.70;99.90;;;;;;4153028;28;20046;-96
2022/06/29 03:57:44;;;;;;;9.65;5.10;;;15.80;99.90;;;;;;4152768;28;20033;-96
2022/06/29 03:59:45;;;;;;;8.20;5.03;;;15.70;99.90;;;;;;4152577;28;20053;-96
2022/06/29 04:01:47;;;;;;;11.50;4.47;;;15.80;99.90;;;;;;4154829;28;20054;-96
2022/06/29 04:03:48;;;;;;;6.30;4.13;;;15.70;99.90;;;;;;4154024;28;20041;-96
2022/06/29 04:05:49;;;;;;;6.28;4.43;;;15.80;99.90;;;;;;4153384;28;20494;-96
2022/06/29 04:07:51;;;;;;;7.75;4.68;;;15.50;99.90;;;;;;4154125;28;20046;-96
2022/06/29 04:09:59;;;;;;;8.80;5.28;;;15.70;99.90;;;;;;4153844;28;20564;-96
2022/06/29 04:12:00;;;;;;;7.45;5.40;;;15.80;99.90;;;;;;4152619;28;20631;-96
2022/06/29 04:14:02;;;;;;;6.25;5.22;;;15.80;99.90;;;;;;4169808;28;20049;-96
2022/06/29 04:16:03;;;;;;;10.18;5.10;;;15.80;99.90;;;;;;4152829;28;20053;-96
2022/06/29 04:18:07;;;;;;;11.50;6.03;;;15.80;99.90;;;;;;4171792;28;20056;-96
2022/06/29 04:20:08;;;;;;;7.22;4.90;;;15.50;99.90;;;;;;4160666;28;20086;-96
2022/06/29 04:22:09;;;;;;;8.38;4.80;;;15.70;99.90;;;;;;4171998;28;20067;-96
2022/06/29 04:24:11;;;;;;;6.10;4.68;;;15.70;99.90;;;;;;4172206;28;20467;-96
2022/06/29 04:26:14;;;;;;;8.07;4.93;;;15.70;99.90;;;;;;4184582;28;20060;-96
2022/06/29 04:28:15;;;;;;;9.00;5.03;;;15.70;99.90;;;;;;4172151;28;20064;-88
2022/06/29 04:30:24;;;;;;;7.47;5.07;;;15.70;99.90;;;;;;4180689;28;20052;-95
2022/06/29 04:32:27;;;;;;;8.77;4.88;;;15.60;99.90;;;;;;4167662;28;20101;-96
2022/06/29 04:34:38;;;;;;;13.18;5.82;;;15.70;99.90;;;;;;4165810;28;20069;-95
2022/06/29 04:36:40;;;;;;;9.18;5.70;;;15.70;99.90;;;;;;4165406;28;20046;-96
2022/06/29 04:38:44;;;;;;;6.90;4.65;;;16.00;99.90;;;;;;4153570;28;20096;-92
2022/06/29 04:40:51;;;;;;;8.48;5.15;;;16.10;99.90;;;;;;4155672;28;20067;-95
2022/06/29 04:42:52;;;;;;;7.15;4.72;;;15.80;99.90;;;;;;4160601;28;20077;-90
2022/06/29 04:44:54;;;;;;;8.10;5.25;;;15.80;99.90;;;;;;4153723;28;20046;-91
2022/06/29 04:46:55;;;;;;;12.43;5.18;;;15.80;99.90;;;;;;4168053;28;20128;-90
2022/06/29 04:49:00;;;;;;;8.55;5.05;;;15.80;99.90;;;;;;4154838;28;20046;-91
2022/06/29 04:51:01;;;;;;;7.32;5.03;;;15.90;99.90;;;;;;4157529;28;20196;-93
2022/06/29 04:53:10;;;;;;;9.77;5.68;;;15.90;99.90;;;;;;4154803;28;20085;-96
2022/06/29 04:55:41;;;;;;;8.23;5.40;;;15.90;99.90;;;;;;4169105;28;20049;-95
2022/06/29 04:57:42;;;;;;;7.13;5.10;;;15.90;99.90;;;;;;4168832;28;20056;-94
2022/06/29 04:59:43;;;;;;;7.38;4.93;;;16.00;99.90;;;;;;4130845;28;20059;-93
2022/06/29 05:01:47;;;;;;;7.05;5.10;;;16.00;99.90;;;;;;4134894;28;20118;-93
2022/06/29 05:03:48;;;;;;;7.15;4.93;;;16.00;99.90;;;;;;4128033;28;20588;-94
2022/06/29 05:05:49;;;;;;;8.05;5.43;;;16.10;99.90;;;;;;4134579;28;20046;-94
2022/06/29 05:07:51;;;;;;;7.75;5.35;;;16.20;99.90;;;;;;4150566;28;20368;-93
2022/06/29 05:09:51;;;;;;;6.63;5.47;;;16.20;99.90;;;;;;4135357;28;20041;-93
2022/06/29 05:11:55;;;;;;;7.53;5.18;;;16.20;99.90;;;;;;4135231;28;20542;-93
2022/06/29 05:13:56;;;;;;;6.90;5.07;;;16.30;99.90;;;;;;4136380;28;20116;-94
2022/06/29 05:15:57;;;;;;;10.05;5.28;;;16.30;99.90;;;;;;4134296;28;20053;-94
2022/06/29 05:17:58;;;;;;;6.97;5.28;;;16.40;99.90;;;;;;4134362;28;20065;-94
2022/06/29 05:20:00;;;;;;;8.23;5.25;;;16.50;99.90;;;;;;4134412;28;20050;-94
2022/06/29 05:22:01;;;;;;;6.95;5.50;;;16.50;99.90;;;;;;4134125;28;20042;-94
2022/06/29 05:24:03;;;;;;;5.90;4.75;;;16.50;99.90;;;;;;4134383;28;20093;-94
2022/06/29 05:26:03;;;;;;;7.63;5.32;;;16.60;99.90;;;;;;4135099;28;20050;-95
2022/06/29 05:28:06;;;;;;;6.40;5.22;;;16.60;99.90;;;;;;4133596;28;20042;-95
2022/06/29 05:30:07;;;;;;;7.80;5.85;;;16.70;99.90;;;;;;4131999;28;20411;-94
2022/06/29 05:32:10;;;;;;;6.57;4.82;;;16.70;99.90;;;;;;4132238;28;20073;-94
2022/06/29 05:34:10;;;;;;;8.20;4.50;;;16.70;99.90;;;;;;4132391;28;20086;-94
2022/06/29 05:36:12;;;;;;;14.00;6.03;;;16.80;99.90;;;;;;4133521;28;20054;-94
2022/06/29 05:38:13;;;;;;;8.85;5.55;;;16.80;99.90;;;;;;4134448;28;20047;-94
2022/06/29 05:40:21;;;;;;;9.88;4.65;;;16.60;99.90;;;;;;4135098;28;20415;-94
2022/06/29 05:42:51;;;;;;;8.50;5.57;;;16.90;99.90;;;;;;4139691;28;20058;-93
2022/06/29 05:44:53;;;;;;;8.23;4.75;;;17.00;99.90;;;;;;4145312;28;20058;-93
2022/06/29 05:46:57;;;;;;;8.20;5.00;;;17.10;99.90;;;;;;4146023;28;20091;-94
2022/06/29 05:49:02;;;;;;;9.80;4.93;;;17.20;99.90;;;;;;4162624;28;20081;-94
2022/06/29 05:51:02;;;;;;;8.25;4.97;;;17.30;99.90;;;;;;4143471;28;20049;-94
2022/06/29 05:53:05;;;;;;;7.15;4.65;;;17.30;99.90;;;;;;4159792;28;20406;-94
2022/06/29 05:55:09;;;;;;;7.00;5.13;;;17.40;99.90;;;;;;4147033;28;20068;-94
2022/06/29 05:57:10;;;;;;;5.55;4.93;;;17.90;99.90;;;;;;4165587;28;20165;-94
2022/06/29 05:59:14;;;;;;;6.68;4.80;;;17.30;99.90;;;;;;4151095;28;20085;-94
2022/06/29 06:01:22;;;;;;;8.30;4.28;;;17.60;99.90;;;;;;4168823;28;20065;-95
2022/06/29 06:03:23;;;;;;;4.88;4.13;;;17.50;99.90;;;;;;4174960;28;20080;-95
2022/06/29 06:05:25;;;;;;;7.53;4.18;;;17.60;99.90;;;;;;4203365;28;20049;-94
2022/06/29 06:07:30;;;;;;;7.07;3.90;;;17.60;99.90;;;;;;4186287;28;20112;-93
2022/06/29 06:09:36;;;;;;;5.45;3.65;;;17.70;99.90;;;;;;4186276;28;20045;-94
2022/06/29 06:11:49;;;;;;;5.85;3.60;;;17.80;99.90;;;;;;4185211;28;20058;-94
2022/06/29 06:13:51;;;;;;;5.38;3.67;;;17.90;99.90;;;;;;4186782;28;20048;-95
2022/06/29 06:15:53;;;;;;;6.78;3.55;;;17.90;99.90;;;;;;4230629;23;20096;-93
2022/06/29 06:18:04;;;;;;;11.75;3.88;;;18.10;99.90;;;;;;4186282;28;20131;-94
2022/06/29 06:20:17;;;;;;;4.57;3.30;;;18.10;99.90;;;;;;4202870;28;20056;-95
2022/06/29 06:22:18;;;;;;;4.88;3.35;;;18.10;99.90;;;;;;4203699;28;20045;-95
2022/06/29 06:24:21;;;;;;;3.38;2.90;;;18.10;99.90;;;;;;4202859;28;20045;-94
2022/06/29 06:26:32;;;;;;;7.30;3.65;;;18.20;99.90;;;;;;4183069;28;20026;-95
2022/06/29 06:28:35;;;;;;;6.00;3.80;;;18.30;99.90;;;;;;4180488;28;20051;-94
2022/06/29 06:31:17;;;;;;;5.05;3.63;;;18.40;99.90;;;;;;4196792;28;20049;-90
2022/06/29 06:33:19;;;;;;;7.30;3.20;;;18.50;99.90;;;;;;4170684;28;20049;-90
2022/06/29 06:35:20;;;;;;;7.03;3.30;;;18.60;99.90;;;;;;4166688;28;20084;-90
2022/06/29 06:37:21;;;;;;;6.97;3.58;;;18.70;99.90;;;;;;4183091;28;20053;-90
2022/06/29 06:39:21;;;;;;;8.38;3.30;;;18.80;99.90;;;;;;4183064;28;20048;-90
2022/06/29 06:41:22;;;;;;;7.38;3.15;;;18.90;99.90;;;;;;4166540;28;20087;-90
2022/06/29 06:43:23;;;;;;;5.13;3.15;;;19.00;99.90;;;;;;4183325;28;20095;-90
2022/06/29 06:45:24;;;;;;;4.28;2.72;;;19.00;99.80;;;;;;4166532;28;20127;-89
2022/06/29 06:47:25;;;;;;;5.75;2.83;;;19.10;99.60;;;;;;4166731;28;20568;-90
2022/06/29 06:49:25;;;;;;;4.75;2.47;;;19.10;99.50;;;;;;4182348;28;20075;-90
2022/06/29 06:51:26;;;;;;;4.32;2.53;;;19.20;99.40;;;;;;4166264;28;20087;-90
2022/06/29 06:53:27;;;;;;;4.10;2.35;;;19.30;98.60;;;;;;4183421;28;20163;-90
2022/06/29 06:55:29;;;;;;;7.15;2.72;;;19.30;98.60;;;;;;4165845;28;20080;-91
2022/06/29 06:57:30;;;;;;;7.10;2.92;;;19.40;98.40;;;;;;4182837;28;20045;-90
2022/06/29 06:59:30;;;;;;;4.15;2.30;;;19.50;98.10;;;;;;4182913;28;20048;-91
2022/06/29 07:01:31;;;;;;;3.35;2.53;;;19.60;98.20;;;;;;4182165;28;20151;-91
2022/06/29 07:03:35;;;;;;;4.10;2.03;;;19.70;98.20;;;;;;4182837;28;20052;-91
2022/06/29 07:05:37;;;;;;;6.80;2.42;;;19.80;98.20;;;;;;4165252;28;20065;-91
2022/06/29 07:07:39;;;;;;;4.32;2.35;;;19.90;97.90;;;;;;4182406;28;20056;-91
2022/06/29 07:09:41;;;;;;;2.90;2.15;;;;;;;;;;4182659;28;20049;-90
2022/06/29 07:11:42;;;;;;;4.80;1.92;;;19.90;97.70;;;;;;4165862;28;20042;-91
2022/06/29 07:13:43;;;;;;;2.15;1.77;;;20.10;97.40;;;;;;4182359;28;20041;-91
2022/06/29 07:15:44;;;;;;;7.30;1.92;;;;;;;;;;4166134;28;20044;-93
2022/06/29 07:17:58;;;;;;;4.72;2.33;;;20.20;97.30;;;;;;4166949;28;20053;-94
2022/06/29 07:20:00;;;;;;;3.55;1.95;;;20.40;96.60;;;;;;4169231;28;20503;-96
2022/06/29 07:22:01;;;;;;;3.88;1.90;;;20.50;96.30;;;;;;4145549;28;20041;-94
2022/06/29 07:24:01;;;;;;;5.30;1.75;;;20.60;95.90;;;;;;4162279;28;20052;-89
2022/06/29 07:26:02;;;;;;;2.20;1.60;;;20.50;95.40;;;;;;4165648;28;20143;-88
2022/06/29 07:28:03;;;;;;;7.63;1.85;;;20.80;94.90;;;;;;4183171;28;20064;-91
2022/06/29 07:30:05;;;;;;;2.60;1.60;;;20.90;94.70;;;;;;4184141;28;20041;-91
2022/06/29 07:32:06;;;;;;;3.33;1.65;;;20.90;94.20;;;;;;4192159;28;20052;-90
2022/06/29 07:34:10;;;;;;;2.47;1.40;;;21.00;94.20;;;;;;4187758;28;20053;-90
2022/06/29 07:36:11;;;;;;;3.05;1.70;;;21.10;94.20;;;;;;4165714;28;20561;-91
2022/06/29 07:38:12;;;;;;;3.33;1.65;;;21.20;93.60;;;;;;4166189;28;20046;-90
2022/06/29 07:40:13;;;;;;;4.28;1.75;;;21.30;93.30;;;;;;4173577;28;20134;-91
2022/06/29 07:42:15;;;;;;;2.97;1.60;;;21.30;92.40;;;;;;4199441;28;20049;-91
2022/06/29 07:44:16;;;;;;;3.28;1.40;;;21.40;92.00;;;;;;4183703;28;20049;-90
2022/06/29 07:46:22;;;;;;;5.93;1.30;;;21.50;91.80;;;;;;4183193;28;20511;-90
2022/06/29 07:48:25;;;;;;;1.85;1.33;;;21.60;91.20;;;;;;4209954;28;20098;-90
2022/06/29 07:50:25;;;;;;;2.72;1.55;;;21.70;91.60;;;;;;4182838;28;20069;-90
2022/06/29 07:52:27;;;;;;;2.35;1.13;;;21.80;91.00;;;;;;4176935;28;20041;-90
2022/06/29 07:54:31;;;;;;;4.47;1.50;;;22.00;91.00;;;;;;4167064;28;20049;-91
2022/06/29 07:56:33;;;;;;;2.40;1.20;;;22.00;90.70;;;;;;4172776;28;20041;-90
2022/06/29 07:58:34;;;;;;;2.03;1.27;;;22.10;90.50;;;;;;4182422;28;20056;-89
2022/06/29 08:00:36;;;;;;;3.67;1.33;;;22.20;90.40;;;;;;4183207;28;20503;-90
2022/06/29 08:02:37;;;;;;;2.97;1.40;;;;;;;;;;4182131;28;20052;-90
2022/06/29 08:04:38;;;;;;;3.35;1.30;;;22.30;90.00;;;;;;4194493;28;20037;-90
2022/06/29 08:06:38;;;;;;;2.38;1.55;;;22.40;90.00;;;;;;4201931;28;20039;-89
2022/06/29 08:08:42;;;;;;;4.07;1.63;;;22.40;89.00;;;;;;4194314;28;20038;-89
2022/06/29 08:10:58;;;;;;;2.63;1.23;;;22.60;87.90;;;;;;4184316;28;20061;-89
2022/06/29 08:13:00;;;;;;;2.33;1.00;;;22.70;85.80;;;;;;4168211;28;20069;-90
2022/06/29 08:15:02;;;;;;;1.60;1.17;;;22.70;86.60;;;;;;4167845;28;20038;-90
2022/06/29 08:17:03;;;;;;;5.38;1.40;;;22.90;87.10;;;;;;4168226;28;20084;-89
2022/06/29 08:19:05;;;;;;;3.65;1.50;;;23.10;86.90;;;;;;4184743;28;20033;-90
2022/06/29 08:21:06;;;;;;;4.32;1.30;;;23.20;86.00;;;;;;4184798;28;20040;-93
2022/06/29 08:23:06;;;;;;;4.70;1.38;;;23.30;84.70;;;;;;4168425;28;20022;-90
2022/06/29 08:25:10;;;;;;;2.67;1.08;;;23.40;85.40;;;;;;4168278;28;20118;-90
2022/06/29 08:27:14;;;;;;;2.25;1.30;;;23.60;83.80;;;;;;4185573;28;20040;-91
2022/06/29 08:29:14;;;;;;;2.42;1.27;;;23.70;83.60;;;;;;4165497;28;20045;-92
2022/06/29 08:31:15;;;;;;;3.75;1.63;;;23.90;84.00;;;;;;4162692;28;20037;-91
2022/06/29 08:33:16;;;;;;;3.63;1.30;;;23.90;82.70;;;;;;4182765;28;20038;-90
2022/06/29 08:35:17;;;;;;;2.75;1.15;;;23.90;81.70;;;;;;4166905;28;20022;-92
2022/06/29 08:37:18;;;;;;;2.88;0.93;;;24.10;82.50;;;;;;4166808;28;20042;-90
2022/06/29 08:39:19;;;;;;;4.05;1.10;;;24.10;81.10;;;;;;4164433;28;20041;-91
2022/06/29 08:41:20;;;;;;;5.97;1.30;;;24.10;80.90;;;;;;4163546;28;20050;-91
2022/06/29 08:43:22;;;;;;;4.13;1.33;;;24.20;81.00;;;;;;4172631;28;20059;-88
2022/06/29 08:45:23;;;;;;;2.28;1.58;;;24.20;81.20;;;;;;4169926;28;20108;-87
2022/06/29 08:47:23;;;;;;;4.10;1.73;;;24.20;81.10;;;;;;4155190;28;20053;-86
2022/06/29 08:49:25;;;;;;;3.63;1.30;;;24.50;81.70;;;;;;4171934;28;20111;-87
2022/06/29 08:51:33;;;;;;;4.00;1.30;;;24.40;78.20;;;;;;4161451;28;20306;-87
2022/06/29 08:53:35;;;;;;;3.13;1.25;;;24.40;76.00;;;;;;4182906;28;20067;-86
2022/06/29 08:55:38;;;;;;;2.35;1.48;;;24.50;78.10;;;;;;4170757;28;20489;-86
2022/06/29 08:57:41;;;;;;;4.75;1.23;;;24.60;75.10;;;;;;4172554;28;20088;-86
2022/06/29 08:59:43;;;;;;;2.22;1.25;;;24.50;74.60;;;;;;4167625;28;20571;-86
2022/06/29 09:01:44;;;;;;;4.72;1.33;;;24.80;76.20;;;;;;4168980;28;20105;-86
2022/06/29 09:03:45;;;;;;;2.85;1.17;;;25.10;77.20;;;;;;4169335;28;20049;-87
2022/06/29 09:06:01;;;;;;;2.13;1.33;;;25.30;76.50;;;;;;4167951;28;20046;-87
2022/06/29 09:08:02;;;;;;;1.70;0.88;;;25.50;74.70;;;;;;4167467;28;20045;-87
2022/06/29 09:10:11;;;;;;;1.83;1.10;;;25.40;75.50;;;;;;4166444;28;20049;-87
2022/06/29 09:12:18;;;;;;;3.88;2.22;;;25.50;73.30;;;;;;4148590;28;20053;-86
2022/06/29 09:14:24;;;;;;;1.65;1.15;;;25.30;68.20;;;;;;4141999;28;20050;-87
2022/06/29 09:16:25;;;;;;;2.22;1.38;;;25.00;65.70;;;;;;4162611;28;20057;-87
2022/06/29 09:18:32;;;;;;;4.07;1.10;;;24.90;67.90;;;;;;4167672;28;20079;-87
2022/06/29 09:20:41;;;;;;;5.13;1.55;;;25.00;65.40;;;;;;4167762;28;20127;-87
2022/06/29 09:22:51;;;;;;;1.35;1.00;;;25.10;67.90;;;;;;4167687;28;20128;-88
2022/06/29 09:24:52;;;;;;;2.08;0.93;;;25.40;63.50;;;;;;4185750;28;20115;-88
2022/06/29 09:27:00;;;;;;;4.00;1.15;;;25.40;65.70;;;;;;4195144;28;20036;-86
2022/06/29 09:29:09;;;;;;;4.45;1.10;;;25.40;61.50;;;;;;4184126;28;20052;-86
2022/06/29 09:31:10;;;;;;;1.88;1.17;;;25.30;63.80;;;;;;4201313;28;20048;-91
2022/06/29 09:33:11;;;;;;;2.13;1.30;;;25.30;64.70;;;;;;4201455;28;20040;-88
2022/06/29 09:35:13;;;;;;;1.50;1.20;;;25.40;64.10;;;;;;4167476;28;20046;-86
2022/06/29 09:37:21;;;;;;;4.03;1.40;;;25.60;62.70;;;;;;4166938;28;20505;-86
2022/06/29 09:39:50;;;;;;;5.47;1.13;;;25.70;62.30;;;;;;4200693;28;20041;-85
2022/06/29 09:41:58;;;;;;;4.28;1.13;;;25.70;63.10;;;;;;4173528;28;20559;-86
2022/06/29 09:43:58;;;;;;;3.60;0.90;;;25.70;62.10;;;;;;4183346;28;20512;-86
2022/06/29 09:46:03;;;;;;;3.05;1.35;;;25.60;62.70;;;;;;4183554;28;20092;-87
2022/06/29 09:48:04;;;;;;;2.22;1.10;;;25.60;62.50;;;;;;4201259;28;20060;-86
2022/06/29 09:50:08;;;;;;;5.65;1.80;;;25.60;62.90;;;;;;4201164;28;20048;-87
2022/06/29 09:52:09;;;;;;;4.53;1.40;;;25.70;63.50;;;;;;4201853;28;20506;-88
2022/06/29 09:54:11;;;;;;;4.28;1.20;;;25.70;64.00;;;;;;4201277;28;20062;-87
2022/06/29 09:56:18;;;;;;;1.88;1.00;;;26.00;64.70;;;;;;4183713;28;20131;-87
2022/06/29 09:58:29;;;;;;;2.60;1.13;;;26.30;66.70;;;;;;4201115;28;20040;-85
2022/06/29 10:03:56;;;;;;;2.42;1.13;;;26.80;58.40;;;;;;4209571;28;20056;-96
2022/06/29 10:06:08;;;;;;;1.27;1.10;;;26.80;62.30;;;;;;4199299;28;20041;-96
2022/06/29 10:08:25;;;;;;;2.63;1.27;;;27.10;63.90;;;;;;4194390;28;20075;-96
2022/06/29 10:10:31;;;;;;;3.40;1.35;;;27.40;62.70;;;;;;4176296;28;20048;-96
2022/06/29 10:15:51;;;;;;;4.38;1.90;;;27.50;56.00;;;;;;4193274;28;20136;-96
2022/06/29 10:18:09;;;;;;;2.00;1.30;;;27.50;56.50;;;;;;4192486;28;20041;-96
2022/06/29 10:20:17;;;;;;;2.42;1.30;;;27.50;57.30;;;;;;4177101;28;20088;-96
2022/06/29 10:22:31;;;;;;;1.50;1.20;;;27.70;58.70;;;;;;4176708;28;20041;-96
2022/06/29 10:25:03;;;;;;;2.13;1.40;;;28.00;55.00;;;;;;4190589;28;20045;-96
2022/06/29 10:27:20;;;;;;;1.92;1.00;;;27.90;58.10;;;;;;4191139;28;20073;-96
2022/06/29 10:29:30;;;;;;;1.50;1.23;;;28.10;54.50;;;;;;4190677;28;20135;-95
2022/06/29 10:32:20;;;;;;;1.60;1.25;;;28.10;59.30;;;;;;4193048;28;20143;-96
2022/06/29 10:37:05;;;;;;;1.42;1.25;;;27.80;57.60;;;;;;4388235;22;20068;-95
2022/06/29 10:39:39;;;;;;;;;;;27.70;53.90;;;;;;4179070;28;20053;-96
2022/06/29 10:48:20;;;;;;;6.95;1.50;;;27.70;53.50;;;;;;4212708;28;20048;-96
2022/06/29 10:50:33;;;;;;;1.65;1.20;;;27.50;54.40;;;;;;4209819;28;20044;-96
2022/06/29 10:53:01;;;;;;;3.22;1.50;;;27.40;54.30;;;;;;4193009;28;20036;-96
2022/06/29 10:55:03;;;;;;;1.58;1.15;;;27.20;52.20;;;;;;4196798;28;20041;-96
2022/06/29 10:57:05;;;;;;;2.17;1.17;;;27.10;55.50;;;;;;4194465;28;20049;-96
2022/06/29 10:59:35;;;;;;;1.65;1.20;;;27.10;54.50;;;;;;4188815;28;20084;-96
2022/06/29 11:02:14;;;;;;;3.30;1.80;;;27.10;56.90;;;;;;4188435;28;20505;-96
2022/06/29 11:04:22;;;;;;;;;;;27.20;56.90;;;;;;4193250;28;20049;-96
2022/06/29 11:12:08;;;;;;;2.35;1.42;;;27.80;57.40;;;;;;4220368;28;20072;-96